sensor_id;sensor_type;location;lat;lon;timestamp;pressure;altitude;pressure_sealevel;temperature;humidity
79540;BME280;68991;52.122;5.406;2023-06-26T00:00:49;101349.19;;;25.62;56.00
79540;BME280;68991;52.122;5.406;2023-06-26T00:03:15;101341.09;;;25.60;56.22
79540;BME280;68991;52.122;5.406;2023-06-26T00:05:42;101338.34;;;25.60;56.21
79540;BME280;68991;52.122;5.406;2023-06-26T00:08:08;101331.09;;;25.59;56.61
79540;BME280;68991;52.122;5.406;2023-06-26T00:10:35;101333.16;;;25.57;56.02
79540;BME280;68991;52.122;5.406;2023-06-26T00:13:02;101335.91;;;25.57;56.32
79540;BME280;68991;52.122;5.406;2023-06-26T00:15:29;101341.41;;;25.57;56.15
79540;BME280;68991;52.122;5.406;2023-06-26T00:17:58;101332.44;;;25.55;56.43
79540;BME280;68991;52.122;5.406;2023-06-26T00:20:25;101334.31;;;25.55;56.27
79540;BME280;68991;52.122;5.406;2023-06-26T00:22:51;101333.44;;;25.54;56.01
79540;BME280;68991;52.122;5.406;2023-06-26T00:25:20;101340.00;;;25.53;56.34
79540;BME280;68991;52.122;5.406;2023-06-26T00:27:46;101334.50;;;25.53;56.24
79540;BME280;68991;52.122;5.406;2023-06-26T00:30:13;101332.75;;;25.52;56.55
79540;BME280;68991;52.122;5.406;2023-06-26T00:32:39;101313.63;;;25.51;56.18
79540;BME280;68991;52.122;5.406;2023-06-26T00:35:06;101314.50;;;25.51;55.95
79540;BME280;68991;52.122;5.406;2023-06-26T00:37:32;101314.50;;;25.51;55.61
79540;BME280;68991;52.122;5.406;2023-06-26T00:39:59;101314.66;;;25.50;56.30
79540;BME280;68991;52.122;5.406;2023-06-26T00:42:25;101309.16;;;25.50;56.43
79540;BME280;68991;52.122;5.406;2023-06-26T00:44:52;101302.75;;;25.49;55.84
79540;BME280;68991;52.122;5.406;2023-06-26T00:47:19;101306.53;;;25.48;56.07
79540;BME280;68991;52.122;5.406;2023-06-26T00:49:45;101312.03;;;25.48;56.07
79540;BME280;68991;52.122;5.406;2023-06-26T00:52:12;101307.56;;;25.47;56.36
79540;BME280;68991;52.122;5.406;2023-06-26T00:54:39;101300.34;;;25.46;56.30
79540;BME280;68991;52.122;5.406;2023-06-26T00:57:06;101302.22;;;25.46;56.11
79540;BME280;68991;52.122;5.406;2023-06-26T00:59:32;101311.34;;;25.46;56.20
79540;BME280;68991;52.122;5.406;2023-06-26T01:01:59;101309.75;;;25.44;56.23
79540;BME280;68991;52.122;5.406;2023-06-26T01:04:25;101314.44;;;25.43;55.96
79540;BME280;68991;52.122;5.406;2023-06-26T01:06:54;101319.06;;;25.43;56.15
79540;BME280;68991;52.122;5.406;2023-06-26T01:09:22;101321.09;;;25.41;56.42
79540;BME280;68991;52.122;5.406;2023-06-26T01:11:48;101323.84;;;25.41;56.14
79540;BME280;68991;52.122;5.406;2023-06-26T01:14:15;101334.00;;;25.40;56.48
79540;BME280;68991;52.122;5.406;2023-06-26T01:16:43;101332.28;;;25.39;55.88
79540;BME280;68991;52.122;5.406;2023-06-26T01:19:19;101325.06;;;25.38;56.00
79540;BME280;68991;52.122;5.406;2023-06-26T01:21:58;101319.53;;;25.38;56.39
79540;BME280;68991;52.122;5.406;2023-06-26T01:24:32;101336.22;;;25.37;56.44
79540;BME280;68991;52.122;5.406;2023-06-26T01:27:00;101338.13;;;25.36;55.95
79540;BME280;68991;52.122;5.406;2023-06-26T01:29:30;101344.66;;;25.35;55.82
79540;BME280;68991;52.122;5.406;2023-06-26T01:31:59;101350.16;;;25.35;56.22
79540;BME280;68991;52.122;5.406;2023-06-26T01:34:27;101363.91;;;25.35;56.40
79540;BME280;68991;52.122;5.406;2023-06-26T01:36:53;101364.94;;;25.34;55.87
79540;BME280;68991;52.122;5.406;2023-06-26T01:39:20;101367.69;;;25.34;55.89
79540;BME280;68991;52.122;5.406;2023-06-26T01:41:46;101360.44;;;25.33;56.26
79540;BME280;68991;52.122;5.406;2023-06-26T01:44:26;101367.00;;;25.32;55.96
79540;BME280;68991;52.122;5.406;2023-06-26T01:47:03;101368.88;;;25.32;55.83
79540;BME280;68991;52.122;5.406;2023-06-26T01:52:08;101369.91;;;25.31;55.96
79540;BME280;68991;52.122;5.406;2023-06-26T01:54:48;101364.38;;;25.31;56.11
79540;BME280;68991;52.122;5.406;2023-06-26T01:57:17;101367.13;;;25.31;55.84
79540;BME280;68991;52.122;5.406;2023-06-26T01:59:46;101370.91;;;25.30;55.72
79540;BME280;68991;52.122;5.406;2023-06-26T02:02:13;101370.06;;;25.29;56.09
79540;BME280;68991;52.122;5.406;2023-06-26T02:04:41;101363.69;;;25.29;56.02
79540;BME280;68991;52.122;5.406;2023-06-26T02:07:07;101371.09;;;25.28;56.18
79540;BME280;68991;52.122;5.406;2023-06-26T02:09:36;101371.09;;;25.28;55.93
79540;BME280;68991;52.122;5.406;2023-06-26T02:12:02;101371.22;;;25.26;56.00
79540;BME280;68991;52.122;5.406;2023-06-26T02:14:29;101371.41;;;25.25;55.82
79540;BME280;68991;52.122;5.406;2023-06-26T02:16:56;101366.78;;;25.25;55.93
79540;BME280;68991;52.122;5.406;2023-06-26T02:19:22;101368.66;;;25.25;55.94
79540;BME280;68991;52.122;5.406;2023-06-26T02:21:49;101376.03;;;25.24;55.66
79540;BME280;68991;52.122;5.406;2023-06-26T02:24:15;101372.41;;;25.24;55.96
79540;BME280;68991;52.122;5.406;2023-06-26T02:26:42;101377.94;;;25.24;55.58
79540;BME280;68991;52.122;5.406;2023-06-26T02:29:08;101376.19;;;25.23;55.40
79540;BME280;68991;52.122;5.406;2023-06-26T02:31:35;101374.47;;;25.22;55.70
79540;BME280;68991;52.122;5.406;2023-06-26T02:34:02;101376.38;;;25.21;55.58
79540;BME280;68991;52.122;5.406;2023-06-26T02:36:28;101370.00;;;25.21;55.39
79540;BME280;68991;52.122;5.406;2023-06-26T02:38:55;101370.00;;;25.21;55.92
79540;BME280;68991;52.122;5.406;2023-06-26T02:41:21;101389.25;;;25.21;55.93
79540;BME280;68991;52.122;5.406;2023-06-26T02:43:48;101385.78;;;25.19;55.62
79540;BME280;68991;52.122;5.406;2023-06-26T02:46:14;101374.78;;;25.19;55.83
79540;BME280;68991;52.122;5.406;2023-06-26T02:48:41;101381.31;;;25.18;55.63
79540;BME280;68991;52.122;5.406;2023-06-26T02:51:08;101383.19;;;25.17;55.82
79540;BME280;68991;52.122;5.406;2023-06-26T02:53:34;101382.34;;;25.17;55.67
79540;BME280;68991;52.122;5.406;2023-06-26T02:56:01;101389.72;;;25.16;55.77
79540;BME280;68991;52.122;5.406;2023-06-26T02:58:27;101398.16;;;25.15;55.95
79540;BME280;68991;52.122;5.406;2023-06-26T03:00:54;101408.13;;;25.16;55.37
79540;BME280;68991;52.122;5.406;2023-06-26T03:03:20;101394.53;;;25.14;55.59
79540;BME280;68991;52.122;5.406;2023-06-26T03:05:47;101391.78;;;25.14;55.67
79540;BME280;68991;52.122;5.406;2023-06-26T03:08:13;101389.91;;;25.15;55.39
79540;BME280;68991;52.122;5.406;2023-06-26T03:10:40;101392.78;;;25.13;55.23
79540;BME280;68991;52.122;5.406;2023-06-26T03:13:07;101398.28;;;25.13;55.52
79540;BME280;68991;52.122;5.406;2023-06-26T03:15:33;101399.31;;;25.12;55.43
79540;BME280;68991;52.122;5.406;2023-06-26T03:18:00;101406.69;;;25.12;55.44
79540;BME280;68991;52.122;5.406;2023-06-26T03:20:26;101403.94;;;25.12;55.38
79540;BME280;68991;52.122;5.406;2023-06-26T03:22:53;101402.22;;;25.11;55.60
79540;BME280;68991;52.122;5.406;2023-06-26T03:25:19;101405.00;;;25.11;55.44
79540;BME280;68991;52.122;5.406;2023-06-26T03:27:46;101410.50;;;25.11;55.40
79540;BME280;68991;52.122;5.406;2023-06-26T03:30:12;101414.25;;;25.10;55.41
79540;BME280;68991;52.122;5.406;2023-06-26T03:32:39;101407.00;;;25.09;55.64
79540;BME280;68991;52.122;5.406;2023-06-26T03:35:06;101402.38;;;25.09;55.47
79540;BME280;68991;52.122;5.406;2023-06-26T03:37:32;101399.81;;;25.08;55.68
79540;BME280;68991;52.122;5.406;2023-06-26T03:39:59;101399.81;;;25.08;55.85
79540;BME280;68991;52.122;5.406;2023-06-26T03:42:25;101411.66;;;25.08;55.46
79540;BME280;68991;52.122;5.406;2023-06-26T03:44:52;101416.31;;;25.08;55.87
79540;BME280;68991;52.122;5.406;2023-06-26T03:47:18;101421.81;;;25.08;55.56
79540;BME280;68991;52.122;5.406;2023-06-26T03:49:45;101420.06;;;25.07;55.66
79540;BME280;68991;52.122;5.406;2023-06-26T03:52:11;101428.34;;;25.07;55.77
79540;BME280;68991;52.122;5.406;2023-06-26T03:54:38;101426.59;;;25.06;55.54
79540;BME280;68991;52.122;5.406;2023-06-26T03:57:04;101426.59;;;25.06;55.85
79540;BME280;68991;52.122;5.406;2023-06-26T03:59:31;101424.00;;;25.04;55.92
79540;BME280;68991;52.122;5.406;2023-06-26T04:01:57;101430.91;;;25.08;55.53
79540;BME280;68991;52.122;5.406;2023-06-26T04:04:24;101441.78;;;25.10;56.12
79540;BME280;68991;52.122;5.406;2023-06-26T04:06:50;101454.53;;;25.11;55.91
79540;BME280;68991;52.122;5.406;2023-06-26T04:09:17;101458.16;;;25.11;55.94
79540;BME280;68991;52.122;5.406;2023-06-26T04:11:43;101450.72;;;25.12;55.70
79540;BME280;68991;52.122;5.406;2023-06-26T04:14:10;101457.97;;;25.13;56.40
79540;BME280;68991;52.122;5.406;2023-06-26T04:16:36;101456.09;;;25.13;55.92
79540;BME280;68991;52.122;5.406;2023-06-26T04:19:03;101463.16;;;25.16;56.60
79540;BME280;68991;52.122;5.406;2023-06-26T04:21:31;101470.41;;;25.17;56.45
79540;BME280;68991;52.122;5.406;2023-06-26T04:23:57;101463.16;;;25.16;56.51
79540;BME280;68991;52.122;5.406;2023-06-26T04:26:24;101464.22;;;25.15;56.13
79540;BME280;68991;52.122;5.406;2023-06-26T04:28:50;101468.66;;;25.16;56.16
79540;BME280;68991;52.122;5.406;2023-06-26T04:31:17;101471.28;;;25.17;56.49
79540;BME280;68991;52.122;5.406;2023-06-26T04:33:44;101469.72;;;25.15;56.33
79540;BME280;68991;52.122;5.406;2023-06-26T04:36:10;101472.47;;;25.15;56.32
79540;BME280;68991;52.122;5.406;2023-06-26T04:38:37;101475.22;;;25.15;56.39
79540;BME280;68991;52.122;5.406;2023-06-26T04:41:04;101482.44;;;25.16;56.16
79540;BME280;68991;52.122;5.406;2023-06-26T04:43:30;101478.78;;;24.98;54.20
79540;BME280;68991;52.122;5.406;2023-06-26T04:45:57;101484.25;;;24.70;54.32
79540;BME280;68991;52.122;5.406;2023-06-26T04:48:23;101485.66;;;24.47;54.09
79540;BME280;68991;52.122;5.406;2023-06-26T04:50:50;101487.16;;;24.32;54.94
79540;BME280;68991;52.122;5.406;2023-06-26T04:53:21;101495.16;;;24.16;55.42
79540;BME280;68991;52.122;5.406;2023-06-26T04:55:49;101510.34;;;24.01;55.76
79540;BME280;68991;52.122;5.406;2023-06-26T04:58:16;101509.91;;;23.96;55.89
79540;BME280;68991;52.122;5.406;2023-06-26T05:00:42;101504.00;;;23.91;55.66
79540;BME280;68991;52.122;5.406;2023-06-26T05:03:11;101501.81;;;23.85;55.79
79540;BME280;68991;52.122;5.406;2023-06-26T05:05:38;101512.50;;;23.78;55.80
79540;BME280;68991;52.122;5.406;2023-06-26T05:08:16;101520.78;;;23.68;56.11
79540;BME280;68991;52.122;5.406;2023-06-26T05:10:43;101516.56;;;23.64;56.44
79540;BME280;68991;52.122;5.406;2023-06-26T05:13:10;101513.66;;;23.56;56.33
79540;BME280;68991;52.122;5.406;2023-06-26T05:15:37;101516.00;;;23.51;56.58
79540;BME280;68991;52.122;5.406;2023-06-26T05:18:03;101517.00;;;23.50;56.47
79540;BME280;68991;52.122;5.406;2023-06-26T05:20:30;101519.31;;;23.45;56.34
79540;BME280;68991;52.122;5.406;2023-06-26T05:22:57;101533.31;;;23.42;56.83
79540;BME280;68991;52.122;5.406;2023-06-26T05:25:24;101530.97;;;23.38;56.84
79540;BME280;68991;52.122;5.406;2023-06-26T05:27:51;101536.19;;;23.41;56.95
79540;BME280;68991;52.122;5.406;2023-06-26T05:30:18;101534.34;;;23.41;57.03
79540;BME280;68991;52.122;5.406;2023-06-26T05:32:46;101536.59;;;23.36;57.05
79540;BME280;68991;52.122;5.406;2023-06-26T05:35:14;101543.19;;;23.24;56.94
79540;BME280;68991;52.122;5.406;2023-06-26T05:37:42;101542.78;;;23.19;57.71
79540;BME280;68991;52.122;5.406;2023-06-26T05:40:09;101554.31;;;23.13;57.60
79540;BME280;68991;52.122;5.406;2023-06-26T05:42:35;101555.03;;;23.15;57.94
79540;BME280;68991;52.122;5.406;2023-06-26T05:45:02;101553.88;;;23.17;57.57
79540;BME280;68991;52.122;5.406;2023-06-26T05:47:29;101555.91;;;23.15;57.65
79540;BME280;68991;52.122;5.406;2023-06-26T05:49:55;101554.16;;;23.14;57.10
79540;BME280;68991;52.122;5.406;2023-06-26T05:52:22;101558.94;;;23.12;56.83
79540;BME280;68991;52.122;5.406;2023-06-26T05:54:49;101567.00;;;23.14;56.86
79540;BME280;68991;52.122;5.406;2023-06-26T05:57:16;101568.75;;;23.15;56.75
79540;BME280;68991;52.122;5.406;2023-06-26T05:59:43;101564.13;;;23.15;57.08
79540;BME280;68991;52.122;5.406;2023-06-26T06:02:09;101575.97;;;23.16;56.72
79540;BME280;68991;52.122;5.406;2023-06-26T06:04:36;101578.47;;;23.28;57.11
79540;BME280;68991;52.122;5.406;2023-06-26T06:07:04;101587.34;;;23.42;56.99
79540;BME280;68991;52.122;5.406;2023-06-26T06:09:31;101591.69;;;23.54;56.57
79540;BME280;68991;52.122;5.406;2023-06-26T06:11:59;101601.97;;;23.61;56.46
79540;BME280;68991;52.122;5.406;2023-06-26T06:14:25;101597.78;;;23.67;56.32
79540;BME280;68991;52.122;5.406;2023-06-26T06:16:51;101602.72;;;23.73;56.23
79540;BME280;68991;52.122;5.406;2023-06-26T06:19:18;101608.50;;;23.79;55.89
79540;BME280;68991;52.122;5.406;2023-06-26T06:21:44;101615.59;;;23.82;55.77
79540;BME280;68991;52.122;5.406;2023-06-26T06:24:11;101616.91;;;23.88;55.88
79540;BME280;68991;52.122;5.406;2023-06-26T06:26:37;101612.00;;;23.91;55.66
79540;BME280;68991;52.122;5.406;2023-06-26T06:29:04;101615.31;;;23.95;55.18
79540;BME280;68991;52.122;5.406;2023-06-26T06:31:30;101623.09;;;23.99;55.50
79540;BME280;68991;52.122;5.406;2023-06-26T06:33:57;101621.81;;;24.03;55.53
79540;BME280;68991;52.122;5.406;2023-06-26T06:36:23;101627.88;;;24.07;55.40
79540;BME280;68991;52.122;5.406;2023-06-26T06:38:50;101640.47;;;24.09;55.25
79540;BME280;68991;52.122;5.406;2023-06-26T06:41:16;101652.81;;;24.15;55.23
79540;BME280;68991;52.122;5.406;2023-06-26T06:43:43;101649.75;;;24.18;55.30
79540;BME280;68991;52.122;5.406;2023-06-26T06:46:10;101653.97;;;24.22;55.18
79540;BME280;68991;52.122;5.406;2023-06-26T06:48:36;101655.53;;;24.24;55.38
79540;BME280;68991;52.122;5.406;2023-06-26T06:51:03;101674.66;;;24.26;55.34
79540;BME280;68991;52.122;5.406;2023-06-26T06:53:31;101678.97;;;24.28;54.74
79540;BME280;68991;52.122;5.406;2023-06-26T06:55:57;101673.34;;;24.30;55.11
79540;BME280;68991;52.122;5.406;2023-06-26T06:58:24;101676.69;;;24.34;55.25
79540;BME280;68991;52.122;5.406;2023-06-26T07:00:50;101663.53;;;24.37;55.33
79540;BME280;68991;52.122;5.406;2023-06-26T07:03:18;101661.47;;;24.39;55.35
79540;BME280;68991;52.122;5.406;2023-06-26T07:05:44;101668.56;;;24.42;55.12
79540;BME280;68991;52.122;5.406;2023-06-26T07:08:11;101676.50;;;24.45;55.06
79540;BME280;68991;52.122;5.406;2023-06-26T07:10:38;101671.75;;;24.47;55.11
79540;BME280;68991;52.122;5.406;2023-06-26T07:13:05;101673.34;;;24.49;55.22
79540;BME280;68991;52.122;5.406;2023-06-26T07:15:32;101688.66;;;24.52;55.30
79540;BME280;68991;52.122;5.406;2023-06-26T07:17:59;101684.91;;;24.53;55.19
79540;BME280;68991;52.122;5.406;2023-06-26T07:20:25;101698.53;;;24.54;55.29
79540;BME280;68991;52.122;5.406;2023-06-26T07:22:52;101698.22;;;24.57;55.05
79540;BME280;68991;52.122;5.406;2023-06-26T07:25:19;101708.94;;;24.60;55.17
79540;BME280;68991;52.122;5.406;2023-06-26T07:27:45;101705.00;;;24.63;55.09
79540;BME280;68991;52.122;5.406;2023-06-26T07:30:12;101701.25;;;24.64;54.76
79540;BME280;68991;52.122;5.406;2023-06-26T07:32:39;101706.63;;;24.65;55.00
79540;BME280;68991;52.122;5.406;2023-06-26T07:35:09;101711.97;;;24.67;54.73
79540;BME280;68991;52.122;5.406;2023-06-26T07:37:35;101708.19;;;24.68;54.88
79540;BME280;68991;52.122;5.406;2023-06-26T07:40:02;101711.66;;;24.70;55.42
79540;BME280;68991;52.122;5.406;2023-06-26T07:42:29;101715.28;;;24.70;55.12
79540;BME280;68991;52.122;5.406;2023-06-26T07:44:55;101723.25;;;24.73;54.99
79540;BME280;68991;52.122;5.406;2023-06-26T07:47:22;101718.47;;;24.75;54.88
79540;BME280;68991;52.122;5.406;2023-06-26T07:49:49;101721.94;;;24.77;54.58
79540;BME280;68991;52.122;5.406;2023-06-26T07:52:15;101717.16;;;24.80;54.58
79540;BME280;68991;52.122;5.406;2023-06-26T07:54:42;101718.75;;;24.82;54.68
79540;BME280;68991;52.122;5.406;2023-06-26T07:57:09;101717.78;;;24.83;54.53
79540;BME280;68991;52.122;5.406;2023-06-26T07:59:37;101733.25;;;24.84;54.77
79540;BME280;68991;52.122;5.406;2023-06-26T08:02:04;101735.88;;;24.86;54.42
79540;BME280;68991;52.122;5.406;2023-06-26T08:04:30;101736.75;;;24.86;54.46
79540;BME280;68991;52.122;5.406;2023-06-26T08:07:00;101729.34;;;24.87;54.76
79540;BME280;68991;52.122;5.406;2023-06-26T08:09:28;101726.31;;;24.90;54.81
79540;BME280;68991;52.122;5.406;2023-06-26T08:11:55;101721.50;;;24.92;54.63
79540;BME280;68991;52.122;5.406;2023-06-26T08:14:22;101733.38;;;24.92;54.83
79540;BME280;68991;52.122;5.406;2023-06-26T08:16:49;101728.75;;;24.93;54.62
79540;BME280;68991;52.122;5.406;2023-06-26T08:19:16;101731.22;;;24.96;54.33
79540;BME280;68991;52.122;5.406;2023-06-26T08:21:44;101728.31;;;24.97;54.54
79540;BME280;68991;52.122;5.406;2023-06-26T08:24:11;101742.78;;;24.99;54.40
79540;BME280;68991;52.122;5.406;2023-06-26T08:26:39;101744.66;;;24.99;54.72
79540;BME280;68991;52.122;5.406;2023-06-26T08:29:06;101743.66;;;25.00;54.61
79540;BME280;68991;52.122;5.406;2023-06-26T08:31:39;101747.13;;;25.02;54.65
79540;BME280;68991;52.122;5.406;2023-06-26T08:34:06;101743.38;;;25.03;54.15
79540;BME280;68991;52.122;5.406;2023-06-26T08:36:33;101745.97;;;25.04;54.07
79540;BME280;68991;52.122;5.406;2023-06-26T08:39:00;101751.19;;;25.07;53.92
79540;BME280;68991;52.122;5.406;2023-06-26T08:41:27;101753.06;;;25.07;53.91
79540;BME280;68991;52.122;5.406;2023-06-26T08:43:53;101760.16;;;25.09;53.79
79540;BME280;68991;52.122;5.406;2023-06-26T08:46:20;101760.00;;;25.11;53.75
79540;BME280;68991;52.122;5.406;2023-06-26T08:48:55;101757.97;;;25.13;53.57
79540;BME280;68991;52.122;5.406;2023-06-26T08:51:24;101761.72;;;25.12;53.97
79540;BME280;68991;52.122;5.406;2023-06-26T08:53:57;101769.97;;;25.12;54.17
79540;BME280;68991;52.122;5.406;2023-06-26T08:56:28;101767.97;;;25.14;53.71
79540;BME280;68991;52.122;5.406;2023-06-26T08:58:58;101771.44;;;25.16;53.45
79540;BME280;68991;52.122;5.406;2023-06-26T09:01:25;101771.44;;;25.16;53.51
79540;BME280;68991;52.122;5.406;2023-06-26T09:03:52;101780.44;;;25.18;53.05
79540;BME280;68991;52.122;5.406;2023-06-26T09:06:18;101790.25;;;25.20;53.12
79540;BME280;68991;52.122;5.406;2023-06-26T09:08:45;101790.97;;;25.22;53.27
79540;BME280;68991;52.122;5.406;2023-06-26T09:11:12;101799.09;;;25.24;52.86
79540;BME280;68991;52.122;5.406;2023-06-26T09:13:39;101797.34;;;25.23;53.00
79540;BME280;68991;52.122;5.406;2023-06-26T09:16:07;101800.09;;;25.23;52.57
79540;BME280;68991;52.122;5.406;2023-06-26T09:18:35;101800.66;;;25.26;52.83
79540;BME280;68991;52.122;5.406;2023-06-26T09:21:08;101801.25;;;25.30;52.43
79540;BME280;68991;52.122;5.406;2023-06-26T09:23:36;101804.72;;;25.32;52.49
79540;BME280;68991;52.122;5.406;2023-06-26T09:26:04;101811.13;;;25.33;52.28
79540;BME280;68991;52.122;5.406;2023-06-26T09:28:32;101809.94;;;25.35;52.63
79540;BME280;68991;52.122;5.406;2023-06-26T09:31:03;101816.31;;;25.36;51.85
79540;BME280;68991;52.122;5.406;2023-06-26T09:33:38;101825.28;;;25.38;51.97
79540;BME280;68991;52.122;5.406;2023-06-26T09:36:09;101823.28;;;25.40;52.35
79540;BME280;68991;52.122;5.406;2023-06-26T09:38:38;101825.84;;;25.41;52.40
79540;BME280;68991;52.122;5.406;2023-06-26T09:41:05;101833.13;;;25.42;52.16
79540;BME280;68991;52.122;5.406;2023-06-26T09:43:31;101833.13;;;25.42;51.75
79540;BME280;68991;52.122;5.406;2023-06-26T09:45:59;101822.97;;;25.43;52.02
79540;BME280;68991;52.122;5.406;2023-06-26T09:48:27;101834.56;;;25.46;51.96
79540;BME280;68991;52.122;5.406;2023-06-26T09:50:55;101839.91;;;25.48;51.87
79540;BME280;68991;52.122;5.406;2023-06-26T09:53:38;101848.16;;;25.48;51.58
79540;BME280;68991;52.122;5.406;2023-06-26T09:56:06;101846.28;;;25.48;51.66
79540;BME280;68991;52.122;5.406;2023-06-26T09:58:33;101847.28;;;25.47;51.30
79540;BME280;68991;52.122;5.406;2023-06-26T10:01:02;101844.53;;;25.47;51.54
79540;BME280;68991;52.122;5.406;2023-06-26T10:03:29;101847.75;;;25.52;51.05
79540;BME280;68991;52.122;5.406;2023-06-26T10:05:56;101851.09;;;25.56;51.30
79540;BME280;68991;52.122;5.406;2023-06-26T10:08:23;101857.16;;;25.59;51.28
79540;BME280;68991;52.122;5.406;2023-06-26T10:10:51;101861.78;;;25.59;51.03
79540;BME280;68991;52.122;5.406;2023-06-26T10:13:22;101871.94;;;25.58;50.70
79540;BME280;68991;52.122;5.406;2023-06-26T10:15:51;101867.88;;;25.62;50.86
79540;BME280;68991;52.122;5.406;2023-06-26T10:18:18;101873.38;;;25.62;50.39
79540;BME280;68991;52.122;5.406;2023-06-26T10:20:48;101881.53;;;25.64;50.44
79540;BME280;68991;52.122;5.406;2023-06-26T10:23:19;101885.84;;;25.66;50.18
79540;BME280;68991;52.122;5.406;2023-06-26T10:25:48;101875.72;;;25.67;50.39
79540;BME280;68991;52.122;5.406;2023-06-26T10:28:16;101887.72;;;25.66;50.07
79540;BME280;68991;52.122;5.406;2023-06-26T10:30:43;101884.97;;;25.66;50.17
79540;BME280;68991;52.122;5.406;2023-06-26T10:33:11;101884.53;;;25.70;50.05
79540;BME280;68991;52.122;5.406;2023-06-26T10:35:45;101883.53;;;25.71;50.33
79540;BME280;68991;52.122;5.406;2023-06-26T10:38:11;101894.81;;;25.78;50.39
79540;BME280;68991;52.122;5.406;2023-06-26T10:40:43;101891.91;;;25.80;49.81
79540;BME280;68991;52.122;5.406;2023-06-26T10:43:15;101887.13;;;25.82;49.51
79540;BME280;68991;52.122;5.406;2023-06-26T10:45:48;101883.06;;;25.86;49.33
79540;BME280;68991;52.122;5.406;2023-06-26T10:48:19;101883.44;;;25.91;49.91
79540;BME280;68991;52.122;5.406;2023-06-26T10:50:48;101901.44;;;25.95;49.33
79540;BME280;68991;52.122;5.406;2023-06-26T10:53:22;101899.56;;;25.95;49.56
79540;BME280;68991;52.122;5.406;2023-06-26T10:55:58;101898.53;;;25.96;49.51
79540;BME280;68991;52.122;5.406;2023-06-26T10:58:52;101909.97;;;26.01;49.17
79540;BME280;68991;52.122;5.406;2023-06-26T11:01:40;101900.94;;;26.09;49.32
79540;BME280;68991;52.122;5.406;2023-06-26T11:04:09;101915.16;;;26.14;48.69
79540;BME280;68991;52.122;5.406;2023-06-26T11:06:37;101901.06;;;26.17;48.90
79540;BME280;68991;52.122;5.406;2023-06-26T11:09:13;101907.50;;;26.17;48.30
79540;BME280;68991;52.122;5.406;2023-06-26T11:14:26;101915.00;;;26.25;48.23
79540;BME280;68991;52.122;5.406;2023-06-26T11:16:56;101912.63;;;26.30;48.67
79540;BME280;68991;52.122;5.406;2023-06-26T11:19:26;101915.81;;;26.35;48.00
79540;BME280;68991;52.122;5.406;2023-06-26T11:21:58;101919.28;;;26.37;48.30
79540;BME280;68991;52.122;5.406;2023-06-26T11:24:26;101928.28;;;26.39;48.09
79540;BME280;68991;52.122;5.406;2023-06-26T11:26:52;101926.25;;;26.41;47.92
79540;BME280;68991;52.122;5.406;2023-06-26T11:29:19;101937.28;;;26.41;48.11
79540;BME280;68991;52.122;5.406;2023-06-26T11:31:45;101940.91;;;26.42;48.27
79540;BME280;68991;52.122;5.406;2023-06-26T11:34:13;101942.47;;;26.44;47.54
79540;BME280;68991;52.122;5.406;2023-06-26T11:36:41;101935.22;;;26.43;47.45
79540;BME280;68991;52.122;5.406;2023-06-26T11:39:09;101931.75;;;26.41;47.65
79540;BME280;68991;52.122;5.406;2023-06-26T11:41:37;101939.03;;;26.42;48.26
79540;BME280;68991;52.122;5.406;2023-06-26T11:44:08;101937.38;;;26.49;47.83
79540;BME280;68991;52.122;5.406;2023-06-26T11:46:40;101951.19;;;26.49;47.90
79540;BME280;68991;52.122;5.406;2023-06-26T11:49:07;101961.91;;;26.52;47.66
79540;BME280;68991;52.122;5.406;2023-06-26T11:51:34;101968.84;;;26.56;47.27
79540;BME280;68991;52.122;5.406;2023-06-26T11:54:03;101965.63;;;26.61;47.18
79540;BME280;68991;52.122;5.406;2023-06-26T11:56:31;101963.59;;;26.63;47.34
79540;BME280;68991;52.122;5.406;2023-06-26T11:59:05;101984.66;;;26.64;47.97
79540;BME280;68991;52.122;5.406;2023-06-26T12:01:42;101976.38;;;26.64;47.79
79540;BME280;68991;52.122;5.406;2023-06-26T12:04:12;101977.63;;;26.69;46.93
79540;BME280;68991;52.122;5.406;2023-06-26T12:06:43;101980.09;;;26.72;46.94
79540;BME280;68991;52.122;5.406;2023-06-26T12:09:12;101983.41;;;26.76;47.17
79540;BME280;68991;52.122;5.406;2023-06-26T12:11:44;101996.03;;;26.79;46.93
79540;BME280;68991;52.122;5.406;2023-06-26T12:14:11;101989.22;;;26.83;46.98
79540;BME280;68991;52.122;5.406;2023-06-26T12:16:40;101996.63;;;26.82;46.59
79540;BME280;68991;52.122;5.406;2023-06-26T12:19:08;102007.53;;;26.84;46.66
79540;BME280;68991;52.122;5.406;2023-06-26T12:24:04;102011.53;;;26.89;46.51
79540;BME280;68991;52.122;5.406;2023-06-26T12:26:31;101998.94;;;26.87;46.29
79540;BME280;68991;52.122;5.406;2023-06-26T12:29:09;101994.97;;;26.89;46.35
79540;BME280;68991;52.122;5.406;2023-06-26T12:31:35;101985.53;;;26.92;46.19
79540;BME280;68991;52.122;5.406;2023-06-26T12:34:12;101991.94;;;26.92;46.13
79540;BME280;68991;52.122;5.406;2023-06-26T12:36:45;101993.66;;;26.93;46.12
79540;BME280;68991;52.122;5.406;2023-06-26T12:39:13;102002.97;;;26.92;46.16
79540;BME280;68991;52.122;5.406;2023-06-26T12:42:00;102000.94;;;26.94;46.44
79540;BME280;68991;52.122;5.406;2023-06-26T12:44:31;102010.47;;;27.00;45.98
79540;BME280;68991;52.122;5.406;2023-06-26T12:47:02;102010.47;;;27.00;45.74
79540;BME280;68991;52.122;5.406;2023-06-26T12:49:40;102020.34;;;27.02;45.45
79540;BME280;68991;52.122;5.406;2023-06-26T12:52:09;102007.81;;;27.08;45.52
79540;BME280;68991;52.122;5.406;2023-06-26T12:54:39;102015.94;;;27.09;44.86
79540;BME280;68991;52.122;5.406;2023-06-26T12:57:06;102023.03;;;27.12;45.29
79540;BME280;68991;52.122;5.406;2023-06-26T12:59:34;102009.56;;;27.09;44.60
79540;BME280;68991;52.122;5.406;2023-06-26T13:02:00;102017.84;;;27.09;45.18